sensor_id;sensor_type;location;lat;lon;timestamp;P1;durP1;ratioP1;P2;durP2;ratioP2
20393;SDS011;10356;50.544;9.642;2022-07-29T00:02:22;6.85;;;2.05;;
20393;SDS011;10356;50.544;9.642;2022-07-29T00:04:49;6.32;;;2.03;;
20393;SDS011;10356;50.544;9.642;2022-07-29T00:07:15;13.57;;;2.28;;
20393;SDS011;10356;50.544;9.642;2022-07-29T00:09:42;6.32;;;1.88;;
20393;SDS011;10356;50.544;9.642;2022-07-29T00:12:08;5.78;;;2.25;;
20393;SDS011;10356;50.544;9.642;2022-07-29T00:14:35;2.95;;;1.95;;
20393;SDS011;10356;50.544;9.642;2022-07-29T00:17:03;4.40;;;2.08;;
20393;SDS011;10356;50.544;9.642;2022-07-29T00:19:29;5.05;;;1.58;;
20393;SDS011;10356;50.544;9.642;2022-07-29T00:21:56;7.32;;;1.95;;
20393;SDS011;10356;50.544;9.642;2022-07-29T00:24:22;4.85;;;2.00;;
20393;SDS011;10356;50.544;9.642;2022-07-29T00:26:49;4.05;;;1.90;;
20393;SDS011;10356;50.544;9.642;2022-07-29T00:29:15;3.13;;;1.70;;
20393;SDS011;10356;50.544;9.642;2022-07-29T00:31:42;12.18;;;2.08;;
20393;SDS011;10356;50.544;9.642;2022-07-29T00:34:10;4.85;;;1.95;;
20393;SDS011;10356;50.544;9.642;2022-07-29T00:36:59;6.78;;;1.65;;
20393;SDS011;10356;50.544;9.642;2022-07-29T00:39:25;4.72;;;2.10;;
20393;SDS011;10356;50.544;9.642;2022-07-29T00:41:51;8.73;;;1.92;;
20393;SDS011;10356;50.544;9.642;2022-07-29T00:44:18;5.72;;;1.73;;
20393;SDS011;10356;50.544;9.642;2022-07-29T00:46:45;7.38;;;2.10;;
20393;SDS011;10356;50.544;9.642;2022-07-29T00:49:13;9.10;;;1.73;;
20393;SDS011;10356;50.544;9.642;2022-07-29T00:51:39;7.05;;;2.10;;
20393;SDS011;10356;50.544;9.642;2022-07-29T00:54:06;6.50;;;2.17;;
20393;SDS011;10356;50.544;9.642;2022-07-29T00:56:33;4.20;;;1.60;;
20393;SDS011;10356;50.544;9.642;2022-07-29T00:59:00;5.72;;;1.80;;
20393;SDS011;10356;50.544;9.642;2022-07-29T01:01:26;4.45;;;2.17;;
20393;SDS011;10356;50.544;9.642;2022-07-29T01:03:53;6.72;;;1.90;;
20393;SDS011;10356;50.544;9.642;2022-07-29T01:06:21;6.95;;;2.33;;
20393;SDS011;10356;50.544;9.642;2022-07-29T01:08:49;3.42;;;1.73;;
20393;SDS011;10356;50.544;9.642;2022-07-29T01:11:16;4.22;;;1.73;;
20393;SDS011;10356;50.544;9.642;2022-07-29T01:13:44;4.65;;;1.70;;
20393;SDS011;10356;50.544;9.642;2022-07-29T01:16:15;6.70;;;1.83;;
20393;SDS011;10356;50.544;9.642;2022-07-29T01:18:46;6.05;;;1.80;;
20393;SDS011;10356;50.544;9.642;2022-07-29T01:21:32;4.00;;;1.95;;
20393;SDS011;10356;50.544;9.642;2022-07-29T01:24:22;4.55;;;2.05;;
20393;SDS011;10356;50.544;9.642;2022-07-29T01:27:01;4.75;;;1.90;;
20393;SDS011;10356;50.544;9.642;2022-07-29T01:29:40;5.45;;;1.70;;
20393;SDS011;10356;50.544;9.642;2022-07-29T01:32:10;4.47;;;1.70;;
20393;SDS011;10356;50.544;9.642;2022-07-29T01:34:39;6.70;;;1.83;;
20393;SDS011;10356;50.544;9.642;2022-07-29T01:37:19;5.40;;;1.67;;
20393;SDS011;10356;50.544;9.642;2022-07-29T01:39:47;6.30;;;2.13;;
20393;SDS011;10356;50.544;9.642;2022-07-29T01:42:19;3.30;;;1.63;;
20393;SDS011;10356;50.544;9.642;2022-07-29T01:44:54;4.10;;;1.88;;
20393;SDS011;10356;50.544;9.642;2022-07-29T01:47:25;7.85;;;2.17;;
20393;SDS011;10356;50.544;9.642;2022-07-29T01:49:57;5.18;;;2.10;;
20393;SDS011;10356;50.544;9.642;2022-07-29T01:52:27;3.53;;;1.80;;
20393;SDS011;10356;50.544;9.642;2022-07-29T01:55:01;5.30;;;1.80;;
20393;SDS011;10356;50.544;9.642;2022-07-29T01:57:33;5.30;;;1.75;;
20393;SDS011;10356;50.544;9.642;2022-07-29T02:00:03;6.95;;;1.80;;
20393;SDS011;10356;50.544;9.642;2022-07-29T02:02:31;7.57;;;1.70;;
20393;SDS011;10356;50.544;9.642;2022-07-29T02:05:01;5.88;;;1.70;;
20393;SDS011;10356;50.544;9.642;2022-07-29T02:07:29;6.90;;;1.60;;
20393;SDS011;10356;50.544;9.642;2022-07-29T02:09:59;3.88;;;1.70;;
20393;SDS011;10356;50.544;9.642;2022-07-29T02:12:28;4.57;;;1.80;;
20393;SDS011;10356;50.544;9.642;2022-07-29T02:14:59;4.85;;;1.70;;
20393;SDS011;10356;50.544;9.642;2022-07-29T02:17:41;5.43;;;1.75;;
20393;SDS011;10356;50.544;9.642;2022-07-29T02:20:09;5.55;;;1.58;;
20393;SDS011;10356;50.544;9.642;2022-07-29T02:22:38;4.32;;;1.92;;
20393;SDS011;10356;50.544;9.642;2022-07-29T02:25:06;2.70;;;1.60;;
20393;SDS011;10356;50.544;9.642;2022-07-29T02:27:34;5.30;;;1.70;;
20393;SDS011;10356;50.544;9.642;2022-07-29T02:30:01;3.00;;;1.40;;
20393;SDS011;10356;50.544;9.642;2022-07-29T02:32:30;5.07;;;1.73;;
20393;SDS011;10356;50.544;9.642;2022-07-29T02:35:00;4.25;;;1.75;;
20393;SDS011;10356;50.544;9.642;2022-07-29T02:37:28;6.35;;;1.90;;
20393;SDS011;10356;50.544;9.642;2022-07-29T02:39:56;4.57;;;1.58;;
20393;SDS011;10356;50.544;9.642;2022-07-29T02:42:26;4.45;;;1.63;;
20393;SDS011;10356;50.544;9.642;2022-07-29T02:44:53;2.20;;;1.50;;
20393;SDS011;10356;50.544;9.642;2022-07-29T02:47:20;9.18;;;2.00;;
20393;SDS011;10356;50.544;9.642;2022-07-29T02:49:53;5.07;;;1.85;;
20393;SDS011;10356;50.544;9.642;2022-07-29T02:52:24;8.18;;;1.58;;
20393;SDS011;10356;50.544;9.642;2022-07-29T02:54:55;6.55;;;1.77;;
20393;SDS011;10356;50.544;9.642;2022-07-29T02:57:28;6.10;;;1.75;;
20393;SDS011;10356;50.544;9.642;2022-07-29T03:00:01;5.28;;;1.77;;
20393;SDS011;10356;50.544;9.642;2022-07-29T03:02:31;5.35;;;1.50;;
20393;SDS011;10356;50.544;9.642;2022-07-29T03:05:01;8.32;;;1.63;;
20393;SDS011;10356;50.544;9.642;2022-07-29T03:07:29;5.20;;;1.63;;
20393;SDS011;10356;50.544;9.642;2022-07-29T03:09:57;6.88;;;1.63;;
20393;SDS011;10356;50.544;9.642;2022-07-29T03:12:25;4.22;;;1.73;;
20393;SDS011;10356;50.544;9.642;2022-07-29T03:14:52;8.27;;;2.05;;
20393;SDS011;10356;50.544;9.642;2022-07-29T03:17:19;6.97;;;1.63;;
20393;SDS011;10356;50.544;9.642;2022-07-29T03:19:47;7.63;;;2.10;;
20393;SDS011;10356;50.544;9.642;2022-07-29T03:22:15;13.93;;;2.00;;
20393;SDS011;10356;50.544;9.642;2022-07-29T03:24:42;7.25;;;2.20;;
20393;SDS011;10356;50.544;9.642;2022-07-29T03:27:09;7.55;;;1.80;;
20393;SDS011;10356;50.544;9.642;2022-07-29T03:29:35;5.28;;;2.22;;
20393;SDS011;10356;50.544;9.642;2022-07-29T03:32:03;6.57;;;1.95;;
20393;SDS011;10356;50.544;9.642;2022-07-29T03:34:31;5.72;;;1.83;;
20393;SDS011;10356;50.544;9.642;2022-07-29T03:36:57;5.65;;;1.80;;
20393;SDS011;10356;50.544;9.642;2022-07-29T03:39:27;8.02;;;1.63;;
20393;SDS011;10356;50.544;9.642;2022-07-29T03:41:57;3.75;;;1.73;;
20393;SDS011;10356;50.544;9.642;2022-07-29T03:44:25;6.57;;;2.03;;
20393;SDS011;10356;50.544;9.642;2022-07-29T03:46:55;5.68;;;2.45;;
20393;SDS011;10356;50.544;9.642;2022-07-29T03:49:24;9.85;;;2.20;;
20393;SDS011;10356;50.544;9.642;2022-07-29T03:51:52;5.40;;;1.80;;
20393;SDS011;10356;50.544;9.642;2022-07-29T03:54:18;6.65;;;1.80;;
20393;SDS011;10356;50.544;9.642;2022-07-29T03:56:47;3.65;;;1.67;;
20393;SDS011;10356;50.544;9.642;2022-07-29T03:59:17;6.32;;;1.80;;
20393;SDS011;10356;50.544;9.642;2022-07-29T04:01:45;5.20;;;1.80;;
20393;SDS011;10356;50.544;9.642;2022-07-29T04:04:12;4.90;;;1.80;;
20393;SDS011;10356;50.544;9.642;2022-07-29T04:06:39;4.90;;;1.75;;
20393;SDS011;10356;50.544;9.642;2022-07-29T04:09:06;4.72;;;1.83;;
20393;SDS011;10356;50.544;9.642;2022-07-29T04:11:33;4.55;;;1.95;;
20393;SDS011;10356;50.544;9.642;2022-07-29T04:14:02;5.20;;;2.00;;
20393;SDS011;10356;50.544;9.642;2022-07-29T04:16:29;6.07;;;1.88;;
20393;SDS011;10356;50.544;9.642;2022-07-29T04:18:56;3.92;;;1.60;;
20393;SDS011;10356;50.544;9.642;2022-07-29T04:21:22;5.28;;;1.65;;
20393;SDS011;10356;50.544;9.642;2022-07-29T04:23:49;6.15;;;1.70;;
20393;SDS011;10356;50.544;9.642;2022-07-29T04:26:16;3.67;;;1.48;;
20393;SDS011;10356;50.544;9.642;2022-07-29T04:28:43;4.93;;;1.75;;
20393;SDS011;10356;50.544;9.642;2022-07-29T04:31:11;3.22;;;1.80;;
20393;SDS011;10356;50.544;9.642;2022-07-29T04:33:39;5.70;;;1.98;;
20393;SDS011;10356;50.544;9.642;2022-07-29T04:36:05;4.03;;;1.60;;
20393;SDS011;10356;50.544;9.642;2022-07-29T04:38:32;6.15;;;1.92;;
20393;SDS011;10356;50.544;9.642;2022-07-29T04:40:58;4.03;;;1.58;;
20393;SDS011;10356;50.544;9.642;2022-07-29T04:43:25;6.20;;;2.28;;
20393;SDS011;10356;50.544;9.642;2022-07-29T04:45:51;4.20;;;1.70;;
20393;SDS011;10356;50.544;9.642;2022-07-29T04:48:19;4.75;;;1.65;;
20393;SDS011;10356;50.544;9.642;2022-07-29T04:50:46;5.00;;;2.00;;
20393;SDS011;10356;50.544;9.642;2022-07-29T04:53:12;7.63;;;1.55;;
20393;SDS011;10356;50.544;9.642;2022-07-29T04:55:39;4.47;;;1.70;;
20393;SDS011;10356;50.544;9.642;2022-07-29T04:58:05;9.32;;;2.00;;
20393;SDS011;10356;50.544;9.642;2022-07-29T05:00:32;4.25;;;1.75;;
20393;SDS011;10356;50.544;9.642;2022-07-29T05:02:59;5.68;;;1.95;;
20393;SDS011;10356;50.544;9.642;2022-07-29T05:05:27;6.25;;;2.13;;
20393;SDS011;10356;50.544;9.642;2022-07-29T05:07:54;4.22;;;1.70;;
20393;SDS011;10356;50.544;9.642;2022-07-29T05:10:20;4.57;;;1.73;;
20393;SDS011;10356;50.544;9.642;2022-07-29T05:12:47;6.88;;;1.80;;
20393;SDS011;10356;50.544;9.642;2022-07-29T05:15:13;7.57;;;1.88;;
20393;SDS011;10356;50.544;9.642;2022-07-29T05:17:41;3.28;;;1.58;;
20393;SDS011;10356;50.544;9.642;2022-07-29T05:20:08;5.53;;;1.50;;
20393;SDS011;10356;50.544;9.642;2022-07-29T05:22:37;4.93;;;1.80;;
20393;SDS011;10356;50.544;9.642;2022-07-29T05:25:03;4.72;;;1.73;;
20393;SDS011;10356;50.544;9.642;2022-07-29T05:27:30;5.32;;;1.77;;
20393;SDS011;10356;50.544;9.642;2022-07-29T05:29:57;4.00;;;1.67;;
20393;SDS011;10356;50.544;9.642;2022-07-29T05:32:23;9.00;;;1.65;;
20393;SDS011;10356;50.544;9.642;2022-07-29T05:34:50;7.07;;;2.10;;
20393;SDS011;10356;50.544;9.642;2022-07-29T05:37:17;4.32;;;1.70;;
20393;SDS011;10356;50.544;9.642;2022-07-29T05:39:45;5.65;;;1.83;;
20393;SDS011;10356;50.544;9.642;2022-07-29T05:42:12;9.75;;;1.88;;
20393;SDS011;10356;50.544;9.642;2022-07-29T05:44:39;6.15;;;1.73;;
20393;SDS011;10356;50.544;9.642;2022-07-29T05:47:05;6.55;;;2.28;;
20393;SDS011;10356;50.544;9.642;2022-07-29T05:49:32;5.30;;;1.75;;
20393;SDS011;10356;50.544;9.642;2022-07-29T05:51:59;5.55;;;1.45;;
20393;SDS011;10356;50.544;9.642;2022-07-29T05:54:25;5.25;;;1.95;;
20393;SDS011;10356;50.544;9.642;2022-07-29T05:56:53;6.97;;;1.35;;
20393;SDS011;10356;50.544;9.642;2022-07-29T05:59:19;5.60;;;1.73;;
20393;SDS011;10356;50.544;9.642;2022-07-29T06:01:46;5.13;;;1.45;;
20393;SDS011;10356;50.544;9.642;2022-07-29T06:04:12;4.68;;;1.92;;
20393;SDS011;10356;50.544;9.642;2022-07-29T06:06:39;7.55;;;2.15;;
20393;SDS011;10356;50.544;9.642;2022-07-29T06:09:05;4.63;;;1.70;;
20393;SDS011;10356;50.544;9.642;2022-07-29T06:11:32;12.48;;;2.30;;
20393;SDS011;10356;50.544;9.642;2022-07-29T06:14:00;14.55;;;2.55;;
20393;SDS011;10356;50.544;9.642;2022-07-29T06:16:28;10.55;;;2.42;;
20393;SDS011;10356;50.544;9.642;2022-07-29T06:18:54;8.27;;;2.40;;
20393;SDS011;10356;50.544;9.642;2022-07-29T06:21:21;14.95;;;2.50;;
20393;SDS011;10356;50.544;9.642;2022-07-29T06:23:47;10.80;;;2.40;;
20393;SDS011;10356;50.544;9.642;2022-07-29T06:26:14;12.90;;;2.83;;
20393;SDS011;10356;50.544;9.642;2022-07-29T06:28:41;8.65;;;2.35;;
20393;SDS011;10356;50.544;9.642;2022-07-29T06:31:09;13.85;;;2.80;;
20393;SDS011;10356;50.544;9.642;2022-07-29T06:33:35;12.23;;;2.40;;
20393;SDS011;10356;50.544;9.642;2022-07-29T06:36:03;9.65;;;2.10;;
20393;SDS011;10356;50.544;9.642;2022-07-29T06:38:30;9.43;;;1.95;;
20393;SDS011;10356;50.544;9.642;2022-07-29T06:40:56;8.38;;;2.25;;
20393;SDS011;10356;50.544;9.642;2022-07-29T06:43:28;9.02;;;2.53;;
20393;SDS011;10356;50.544;9.642;2022-07-29T06:45:57;5.88;;;2.03;;
20393;SDS011;10356;50.544;9.642;2022-07-29T06:48:26;7.63;;;2.20;;
20393;SDS011;10356;50.544;9.642;2022-07-29T06:50:52;5.43;;;2.20;;
20393;SDS011;10356;50.544;9.642;2022-07-29T06:53:19;8.48;;;2.03;;
20393;SDS011;10356;50.544;9.642;2022-07-29T06:55:46;4.47;;;2.28;;
20393;SDS011;10356;50.544;9.642;2022-07-29T06:58:13;5.75;;;2.65;;
20393;SDS011;10356;50.544;9.642;2022-07-29T07:00:41;4.20;;;1.95;;
20393;SDS011;10356;50.544;9.642;2022-07-29T07:03:07;9.73;;;2.97;;
20393;SDS011;10356;50.544;9.642;2022-07-29T07:05:35;5.18;;;2.28;;
20393;SDS011;10356;50.544;9.642;2022-07-29T07:08:02;8.13;;;2.40;;
20393;SDS011;10356;50.544;9.642;2022-07-29T07:10:29;7.20;;;2.60;;
20393;SDS011;10356;50.544;9.642;2022-07-29T07:12:55;8.07;;;2.65;;
20393;SDS011;10356;50.544;9.642;2022-07-29T07:15:22;10.43;;;2.70;;
20393;SDS011;10356;50.544;9.642;2022-07-29T07:17:49;10.73;;;2.78;;
20393;SDS011;10356;50.544;9.642;2022-07-29T07:20:15;8.60;;;2.78;;
20393;SDS011;10356;50.544;9.642;2022-07-29T07:22:44;13.90;;;3.45;;
20393;SDS011;10356;50.544;9.642;2022-07-29T07:25:11;8.18;;;2.90;;
20393;SDS011;10356;50.544;9.642;2022-07-29T07:27:37;13.25;;;2.90;;
20393;SDS011;10356;50.544;9.642;2022-07-29T07:30:05;11.93;;;3.10;;
20393;SDS011;10356;50.544;9.642;2022-07-29T07:32:33;10.57;;;3.30;;
20393;SDS011;10356;50.544;9.642;2022-07-29T07:35:00;10.10;;;3.22;;
20393;SDS011;10356;50.544;9.642;2022-07-29T07:37:27;10.45;;;3.10;;
20393;SDS011;10356;50.544;9.642;2022-07-29T07:39:55;9.38;;;2.33;;
20393;SDS011;10356;50.544;9.642;2022-07-29T07:42:21;11.98;;;2.95;;
20393;SDS011;10356;50.544;9.642;2022-07-29T07:44:48;5.25;;;2.97;;
20393;SDS011;10356;50.544;9.642;2022-07-29T07:47:14;8.57;;;2.95;;
20393;SDS011;10356;50.544;9.642;2022-07-29T07:49:44;7.90;;;3.03;;
20393;SDS011;10356;50.544;9.642;2022-07-29T07:52:14;6.85;;;2.95;;
20393;SDS011;10356;50.544;9.642;2022-07-29T07:54:42;6.15;;;2.85;;
20393;SDS011;10356;50.544;9.642;2022-07-29T07:57:11;5.07;;;2.30;;
20393;SDS011;10356;50.544;9.642;2022-07-29T07:59:37;4.47;;;2.83;;
20393;SDS011;10356;50.544;9.642;2022-07-29T08:02:04;8.23;;;3.20;;
20393;SDS011;10356;50.544;9.642;2022-07-29T08:04:31;5.50;;;3.05;;
20393;SDS011;10356;50.544;9.642;2022-07-29T08:06:58;4.93;;;3.05;;
20393;SDS011;10356;50.544;9.642;2022-07-29T08:09:26;8.50;;;3.05;;
20393;SDS011;10356;50.544;9.642;2022-07-29T08:11:53;6.45;;;3.25;;
20393;SDS011;10356;50.544;9.642;2022-07-29T08:14:21;13.07;;;3.33;;
20393;SDS011;10356;50.544;9.642;2022-07-29T08:16:48;13.45;;;3.75;;
20393;SDS011;10356;50.544;9.642;2022-07-29T08:19:14;8.90;;;3.28;;
20393;SDS011;10356;50.544;9.642;2022-07-29T08:21:41;11.00;;;4.15;;
20393;SDS011;10356;50.544;9.642;2022-07-29T08:24:07;7.18;;;3.33;;
20393;SDS011;10356;50.544;9.642;2022-07-29T08:26:48;6.68;;;3.10;;
20393;SDS011;10356;50.544;9.642;2022-07-29T08:29:14;7.72;;;3.33;;
20393;SDS011;10356;50.544;9.642;2022-07-29T08:31:42;6.10;;;4.07;;
20393;SDS011;10356;50.544;9.642;2022-07-29T08:34:10;5.47;;;3.50;;
20393;SDS011;10356;50.544;9.642;2022-07-29T08:36:37;9.27;;;3.47;;
20393;SDS011;10356;50.544;9.642;2022-07-29T08:39:04;8.73;;;3.58;;
20393;SDS011;10356;50.544;9.642;2022-07-29T08:41:31;11.75;;;3.75;;
20393;SDS011;10356;50.544;9.642;2022-07-29T08:43:57;7.07;;;3.40;;
20393;SDS011;10356;50.544;9.642;2022-07-29T08:46:24;6.82;;;3.05;;
20393;SDS011;10356;50.544;9.642;2022-07-29T08:48:52;7.40;;;3.10;;
20393;SDS011;10356;50.544;9.642;2022-07-29T08:51:19;7.03;;;3.42;;
20393;SDS011;10356;50.544;9.642;2022-07-29T08:53:47;6.32;;;3.13;;
20393;SDS011;10356;50.544;9.642;2022-07-29T08:56:15;5.35;;;3.55;;
20393;SDS011;10356;50.544;9.642;2022-07-29T08:58:43;8.60;;;3.83;;
20393;SDS011;10356;50.544;9.642;2022-07-29T09:01:10;7.75;;;3.78;;
20393;SDS011;10356;50.544;9.642;2022-07-29T09:03:38;7.43;;;3.60;;
20393;SDS011;10356;50.544;9.642;2022-07-29T09:06:07;7.82;;;3.10;;
20393;SDS011;10356;50.544;9.642;2022-07-29T09:08:33;7.30;;;3.03;;
20393;SDS011;10356;50.544;9.642;2022-07-29T09:11:00;6.80;;;3.45;;
20393;SDS011;10356;50.544;9.642;2022-07-29T09:13:28;4.95;;;3.08;;
20393;SDS011;10356;50.544;9.642;2022-07-29T09:15:54;8.25;;;3.17;;
20393;SDS011;10356;50.544;9.642;2022-07-29T09:21:04;10.55;;;3.90;;
20393;SDS011;10356;50.544;9.642;2022-07-29T09:24:00;8.32;;;3.33;;
20393;SDS011;10356;50.544;9.642;2022-07-29T09:26:29;4.82;;;3.00;;
20393;SDS011;10356;50.544;9.642;2022-07-29T09:28:57;6.20;;;3.38;;
20393;SDS011;10356;50.544;9.642;2022-07-29T09:31:27;8.68;;;3.40;;
20393;SDS011;10356;50.544;9.642;2022-07-29T09:33:59;3.78;;;2.85;;
20393;SDS011;10356;50.544;9.642;2022-07-29T09:36:26;6.28;;;2.72;;
20393;SDS011;10356;50.544;9.642;2022-07-29T09:38:56;8.85;;;3.67;;
20393;SDS011;10356;50.544;9.642;2022-07-29T09:41:25;4.85;;;3.13;;
20393;SDS011;10356;50.544;9.642;2022-07-29T09:43:53;9.82;;;3.65;;
20393;SDS011;10356;50.544;9.642;2022-07-29T09:46:20;10.80;;;4.10;;
20393;SDS011;10356;50.544;9.642;2022-07-29T09:48:52;9.27;;;3.90;;
20393;SDS011;10356;50.544;9.642;2022-07-29T09:51:32;11.93;;;4.10;;
20393;SDS011;10356;50.544;9.642;2022-07-29T09:53:58;5.47;;;3.70;;
20393;SDS011;10356;50.544;9.642;2022-07-29T09:56:39;10.38;;;4.30;;
20393;SDS011;10356;50.544;9.642;2022-07-29T09:59:05;12.95;;;3.80;;
20393;SDS011;10356;50.544;9.642;2022-07-29T10:01:32;7.90;;;3.75;;
20393;SDS011;10356;50.544;9.642;2022-07-29T10:04:00;7.13;;;3.58;;
20393;SDS011;10356;50.544;9.642;2022-07-29T10:06:27;9.57;;;3.53;;
20393;SDS011;10356;50.544;9.642;2022-07-29T10:08:54;7.20;;;3.78;;
20393;SDS011;10356;50.544;9.642;2022-07-29T10:11:21;9.18;;;4.10;;
20393;SDS011;10356;50.544;9.642;2022-07-29T10:13:48;7.60;;;3.58;;
20393;SDS011;10356;50.544;9.642;2022-07-29T10:16:15;9.43;;;3.72;;
20393;SDS011;10356;50.544;9.642;2022-07-29T10:18:43;10.23;;;3.70;;
20393;SDS011;10356;50.544;9.642;2022-07-29T10:21:11;7.03;;;3.95;;
20393;SDS011;10356;50.544;9.642;2022-07-29T10:23:39;11.90;;;4.20;;
20393;SDS011;10356;50.544;9.642;2022-07-29T10:26:07;8.68;;;4.30;;
20393;SDS011;10356;50.544;9.642;2022-07-29T10:28:33;10.25;;;4.13;;
20393;SDS011;10356;50.544;9.642;2022-07-29T10:31:04;7.25;;;3.90;;
20393;SDS011;10356;50.544;9.642;2022-07-29T10:33:47;7.85;;;3.97;;
20393;SDS011;10356;50.544;9.642;2022-07-29T10:36:29;5.90;;;3.67;;
20393;SDS011;10356;50.544;9.642;2022-07-29T10:39:05;4.70;;;3.63;;
20393;SDS011;10356;50.544;9.642;2022-07-29T10:41:47;12.43;;;3.97;;
20393;SDS011;10356;50.544;9.642;2022-07-29T10:44:22;7.18;;;3.90;;
20393;SDS011;10356;50.544;9.642;2022-07-29T10:46:52;7.20;;;3.53;;
20393;SDS011;10356;50.544;9.642;2022-07-29T10:49:19;8.02;;;3.55;;
20393;SDS011;10356;50.544;9.642;2022-07-29T10:51:57;7.03;;;3.45;;
20393;SDS011;10356;50.544;9.642;2022-07-29T10:54:39;8.15;;;3.70;;
20393;SDS011;10356;50.544;9.642;2022-07-29T10:57:15;6.90;;;3.60;;
20393;SDS011;10356;50.544;9.642;2022-07-29T10:59:52;6.25;;;3.80;;
20393;SDS011;10356;50.544;9.642;2022-07-29T11:02:59;8.77;;;3.88;;
20393;SDS011;10356;50.544;9.642;2022-07-29T11:05:26;6.82;;;3.58;;
20393;SDS011;10356;50.544;9.642;2022-07-29T11:10:46;5.32;;;3.40;;
20393;SDS011;10356;50.544;9.642;2022-07-29T11:13:13;7.03;;;3.92;;
20393;SDS011;10356;50.544;9.642;2022-07-29T11:16:12;4.75;;;3.20;;
20393;SDS011;10356;50.544;9.642;2022-07-29T11:21:41;8.45;;;3.47;;
20393;SDS011;10356;50.544;9.642;2022-07-29T11:24:12;6.28;;;3.25;;
20393;SDS011;10356;50.544;9.642;2022-07-29T11:26:39;5.85;;;3.42;;
20393;SDS011;10356;50.544;9.642;2022-07-29T11:29:06;5.15;;;3.58;;
20393;SDS011;10356;50.544;9.642;2022-07-29T11:31:44;8.00;;;3.53;;
20393;SDS011;10356;50.544;9.642;2022-07-29T11:34:17;6.43;;;3.63;;
20393;SDS011;10356;50.544;9.642;2022-07-29T11:39:44;7.05;;;3.60;;
20393;SDS011;10356;50.544;9.642;2022-07-29T11:45:06;4.68;;;3.15;;
20393;SDS011;10356;50.544;9.642;2022-07-29T11:47:35;5.03;;;2.85;;
20393;SDS011;10356;50.544;9.642;2022-07-29T11:50:03;4.95;;;2.60;;
20393;SDS011;10356;50.544;9.642;2022-07-29T11:52:33;4.78;;;2.80;;
20393;SDS011;10356;50.544;9.642;2022-07-29T11:55:03;3.83;;;2.92;;
20393;SDS011;10356;50.544;9.642;2022-07-29T11:57:32;3.35;;;3.00;;
20393;SDS011;10356;50.544;9.642;2022-07-29T12:00:00;4.60;;;3.28;;
20393;SDS011;10356;50.544;9.642;2022-07-29T12:02:37;4.45;;;2.70;;
20393;SDS011;10356;50.544;9.642;2022-07-29T12:05:07;6.88;;;3.33;;
20393;SDS011;10356;50.544;9.642;2022-07-29T12:07:35;4.57;;;2.85;;
20393;SDS011;10356;50.544;9.642;2022-07-29T12:10:02;6.50;;;3.00;;
20393;SDS011;10356;50.544;9.642;2022-07-29T12:12:30;4.65;;;2.90;;
20393;SDS011;10356;50.544;9.642;2022-07-29T12:14:57;4.47;;;3.03;;
20393;SDS011;10356;50.544;9.642;2022-07-29T12:17:24;4.78;;;3.10;;
20393;SDS011;10356;50.544;9.642;2022-07-29T12:19:52;4.38;;;2.90;;
20393;SDS011;10356;50.544;9.642;2022-07-29T12:22:24;4.53;;;3.33;;
20393;SDS011;10356;50.544;9.642;2022-07-29T12:24:53;3.97;;;2.95;;
20393;SDS011;10356;50.544;9.642;2022-07-29T12:27:19;4.05;;;2.60;;
20393;SDS011;10356;50.544;9.642;2022-07-29T12:29:54;3.30;;;2.70;;
20393;SDS011;10356;50.544;9.642;2022-07-29T12:32:21;4.15;;;2.88;;
20393;SDS011;10356;50.544;9.642;2022-07-29T12:34:48;6.63;;;3.00;;
20393;SDS011;10356;50.544;9.642;2022-07-29T12:37:15;3.55;;;2.85;;
20393;SDS011;10356;50.544;9.642;2022-07-29T12:39:42;4.40;;;2.53;;
20393;SDS011;10356;50.544;9.642;2022-07-29T12:42:13;4.50;;;3.03;;
20393;SDS011;10356;50.544;9.642;2022-07-29T12:44:45;8.00;;;3.30;;
20393;SDS011;10356;50.544;9.642;2022-07-29T12:47:13;3.35;;;2.63;;
20393;SDS011;10356;50.544;9.642;2022-07-29T12:49:41;3.63;;;2.88;;
20393;SDS011;10356;50.544;9.642;2022-07-29T12:52:23;3.33;;;2.75;;
20393;SDS011;10356;50.544;9.642;2022-07-29T12:54:51;3.05;;;2.75;;
20393;SDS011;10356;50.544;9.642;2022-07-29T12:57:18;3.08;;;2.78;;
20393;SDS011;10356;50.544;9.642;2022-07-29T12:59:45;5.18;;;3.22;;
20393;SDS011;10356;50.544;9.642;2022-07-29T13:02:25;5.60;;;2.63;;
20393;SDS011;10356;50.544;9.642;2022-07-29T13:04:55;5.90;;;2.50;;
20393;SDS011;10356;50.544;9.642;2022-07-29T13:07:23;7.88;;;3.20;;
20393;SDS011;10356;50.544;9.642;2022-07-29T13:09:52;4.35;;;2.55;;
20393;SDS011;10356;50.544;9.642;2022-07-29T13:12:20;3.50;;;2.70;;
20393;SDS011;10356;50.544;9.642;2022-07-29T13:14:48;5.35;;;2.67;;
20393;SDS011;10356;50.544;9.642;2022-07-29T13:17:15;5.18;;;2.35;;
20393;SDS011;10356;50.544;9.642;2022-07-29T13:19:44;6.18;;;2.92;;
20393;SDS011;10356;50.544;9.642;2022-07-29T13:22:13;3.88;;;2.67;;
20393;SDS011;10356;50.544;9.642;2022-07-29T13:24:47;3.22;;;2.42;;
20393;SDS011;10356;50.544;9.642;2022-07-29T13:27:15;5.35;;;2.70;;
20393;SDS011;10356;50.544;9.642;2022-07-29T13:29:43;3.10;;;2.70;;
20393;SDS011;10356;50.544;9.642;2022-07-29T13:32:10;4.30;;;2.65;;
20393;SDS011;10356;50.544;9.642;2022-07-29T13:34:37;5.40;;;2.40;;
20393;SDS011;10356;50.544;9.642;2022-07-29T13:37:04;4.95;;;2.47;;
20393;SDS011;10356;50.544;9.642;2022-07-29T13:39:31;3.10;;;2.55;;
20393;SDS011;10356;50.544;9.642;2022-07-29T13:41:58;4.90;;;2.63;;
20393;SDS011;10356;50.544;9.642;2022-07-29T13:44:24;4.20;;;2.58;;
20393;SDS011;10356;50.544;9.642;2022-07-29T13:46:52;3.55;;;2.38;;
20393;SDS011;10356;50.544;9.642;2022-07-29T13:49:18;2.40;;;2.20;;
20393;SDS011;10356;50.544;9.642;2022-07-29T13:51:45;6.47;;;2.30;;
20393;SDS011;10356;50.544;9.642;2022-07-29T13:54:12;2.80;;;2.10;;
20393;SDS011;10356;50.544;9.642;2022-07-29T13:56:38;2.38;;;2.17;;
20393;SDS011;10356;50.544;9.642;2022-07-29T13:59:05;5.65;;;2.50;;
20393;SDS011;10356;50.544;9.642;2022-07-29T14:01:32;2.58;;;2.30;;
20393;SDS011;10356;50.544;9.642;2022-07-29T14:04:00;3.85;;;2.33;;
20393;SDS011;10356;50.544;9.642;2022-07-29T14:06:27;4.13;;;2.28;;
20393;SDS011;10356;50.544;9.642;2022-07-29T14:08:53;3.78;;;2.53;;
20393;SDS011;10356;50.544;9.642;2022-07-29T14:11:20;6.55;;;2.40;;
20393;SDS011;10356;50.544;9.642;2022-07-29T14:13:46;5.13;;;2.58;;
20393;SDS011;10356;50.544;9.642;2022-07-29T14:16:13;2.40;;;2.15;;
20393;SDS011;10356;50.544;9.642;2022-07-29T14:18:40;5.50;;;2.60;;
20393;SDS011;10356;50.544;9.642;2022-07-29T14:21:07;2.95;;;2.10;;
20393;SDS011;10356;50.544;9.642;2022-07-29T14:23:34;2.28;;;2.08;;
20393;SDS011;10356;50.544;9.642;2022-07-29T14:26:00;2.45;;;2.25;;
20393;SDS011;10356;50.544;9.642;2022-07-29T14:28:27;3.67;;;2.17;;
20393;SDS011;10356;50.544;9.642;2022-07-29T14:30:54;3.13;;;2.50;;
20393;SDS011;10356;50.544;9.642;2022-07-29T14:33:21;2.78;;;2.20;;
20393;SDS011;10356;50.544;9.642;2022-07-29T14:35:47;3.03;;;2.38;;
20393;SDS011;10356;50.544;9.642;2022-07-29T14:38:15;3.20;;;2.50;;
20393;SDS011;10356;50.544;9.642;2022-07-29T14:40:42;4.60;;;2.30;;
20393;SDS011;10356;50.544;9.642;2022-07-29T14:43:08;2.47;;;2.28;;
20393;SDS011;10356;50.544;9.642;2022-07-29T14:45:35;2.67;;;2.10;;
20393;SDS011;10356;50.544;9.642;2022-07-29T14:48:01;2.33;;;2.13;;
20393;SDS011;10356;50.544;9.642;2022-07-29T14:50:28;3.53;;;2.30;;
20393;SDS011;10356;50.544;9.642;2022-07-29T14:52:54;3.17;;;2.15;;
20393;SDS011;10356;50.544;9.642;2022-07-29T14:55:22;3.53;;;2.30;;
20393;SDS011;10356;50.544;9.642;2022-07-29T14:57:49;4.10;;;2.17;;
20393;SDS011;10356;50.544;9.642;2022-07-29T15:00:16;5.13;;;2.65;;
20393;SDS011;10356;50.544;9.642;2022-07-29T15:02:43;4.15;;;2.30;;
20393;SDS011;10356;50.544;9.642;2022-07-29T15:05:09;5.25;;;2.30;;
20393;SDS011;10356;50.544;9.642;2022-07-29T15:07:36;3.17;;;2.25;;
20393;SDS011;10356;50.544;9.642;2022-07-29T15:10:02;2.38;;;2.17;;